createdAt,value
2018-06-18T00:00:48.037Z,0
2018-06-18T00:01:58.113Z,0
2018-06-18T00:03:07.932Z,0
2018-06-18T00:04:18.005Z,0
2018-06-18T00:05:27.809Z,0
2018-06-18T00:06:37.616Z,0
2018-06-18T00:07:47.468Z,0
2018-06-18T00:08:57.543Z,0
2018-06-18T00:10:07.344Z,0
2018-06-18T00:11:17.401Z,0
2018-06-18T00:12:27.229Z,0
2018-06-18T00:13:37.310Z,0
2018-06-18T00:14:47.392Z,0
2018-06-18T00:15:57.458Z,0
2018-06-18T00:17:07.536Z,0
2018-06-18T00:18:17.361Z,0
2018-06-18T00:19:27.168Z,0
2018-06-18T00:20:36.968Z,0
2018-06-18T00:21:47.035Z,0
2018-06-18T00:22:56.875Z,0
2018-06-18T00:24:06.932Z,0
2018-06-18T00:25:17.009Z,0
2018-06-18T00:26:27.089Z,0
2018-06-18T00:27:36.631Z,0
2018-06-18T00:28:46.184Z,0
2018-06-18T00:29:56.262Z,0
2018-06-18T00:31:06.339Z,0
2018-06-18T00:32:16.419Z,0
2018-06-18T00:33:26.512Z,0
2018-06-18T00:34:36.578Z,0
2018-06-18T00:35:46.673Z,0
2018-06-18T00:36:56.794Z,0
2018-06-18T00:38:06.860Z,0
2018-06-18T00:39:16.940Z,0
2018-06-18T00:40:27.037Z,0
2018-06-18T00:41:37.151Z,0
2018-06-18T00:42:47.235Z,0
2018-06-18T00:43:57.325Z,0
2018-06-18T00:45:06.883Z,0
2018-06-18T00:46:16.955Z,0
2018-06-18T00:47:26.786Z,0
2018-06-18T00:48:36.600Z,0
2018-06-18T00:49:46.424Z,0
2018-06-18T00:50:56.516Z,0
2018-06-18T00:52:06.623Z,0
2018-06-18T00:53:16.440Z,0
2018-06-18T00:54:26.260Z,0
2018-06-18T00:55:36.333Z,0
2018-06-18T00:56:46.139Z,0
2018-06-18T00:57:56.223Z,0
2018-06-18T00:59:06.296Z,0
2018-06-18T01:00:16.095Z,0
2018-06-18T01:01:26.218Z,0
2018-06-18T01:02:36.295Z,0
2018-06-18T01:03:45.849Z,0
2018-06-18T01:04:55.931Z,0
2018-06-18T01:06:05.757Z,0
2018-06-18T01:07:15.306Z,0
2018-06-18T01:08:25.128Z,0
2018-06-18T01:09:35.215Z,0
2018-06-18T01:10:45.286Z,0
2018-06-18T01:11:54.832Z,0
2018-06-18T01:13:04.921Z,0
2018-06-18T01:14:14.987Z,0
2018-06-18T01:15:24.528Z,0
2018-06-18T01:16:34.608Z,0
2018-06-18T01:17:44.688Z,0
2018-06-18T01:18:54.789Z,0
2018-06-18T01:20:04.340Z,0
2018-06-18T01:21:14.158Z,0
2018-06-18T01:22:24.231Z,0
2018-06-18T01:23:34.301Z,0
2018-06-18T01:24:44.116Z,0
2018-06-18T01:25:53.914Z,0
2018-06-18T01:27:03.986Z,0
2018-06-18T01:28:14.054Z,0
2018-06-18T01:29:23.902Z,0
2018-06-18T01:30:33.707Z,0
2018-06-18T01:31:43.783Z,0
2018-06-18T01:32:53.869Z,0
2018-06-18T01:34:03.931Z,0
2018-06-18T01:35:13.747Z,0
2018-06-18T01:36:23.841Z,0
2018-06-18T01:37:33.921Z,0
2018-06-18T01:38:44.001Z,0
2018-06-18T01:39:54.074Z,0
2018-06-18T01:41:04.151Z,0
2018-06-18T01:42:14.217Z,0
2018-06-18T01:43:24.293Z,0
2018-06-18T01:44:34.359Z,0
2018-06-18T01:45:44.429Z,0
2018-06-18T01:46:54.498Z,0
2018-06-18T01:48:04.317Z,0
2018-06-18T01:49:14.130Z,0
2018-06-18T01:50:24.194Z,0
2018-06-18T01:51:34.255Z,0
2018-06-18T01:52:44.324Z,0
2018-06-18T01:53:54.383Z,0
2018-06-18T01:55:04.478Z,0
2018-06-18T01:56:14.539Z,0
2018-06-18T01:57:24.614Z,0
2018-06-18T01:58:34.693Z,0
2018-06-18T01:59:44.238Z,0
2018-06-18T02:00:54.312Z,0
2018-06-18T02:02:04.397Z,0
2018-06-18T02:03:14.195Z,0
2018-06-18T02:04:24.011Z,0
2018-06-18T02:05:34.086Z,0
2018-06-18T02:06:44.400Z,0
2018-06-18T02:07:54.495Z,0
2018-06-18T02:09:04.557Z,0
2018-06-18T02:10:14.387Z,0
2018-06-18T02:11:24.461Z,0
2018-06-18T02:12:34.267Z,0
2018-06-18T02:13:44.349Z,0
2018-06-18T02:14:54.148Z,0
2018-06-18T02:16:04.242Z,0
2018-06-18T02:17:14.349Z,0
2018-06-18T02:18:24.425Z,0
2018-06-18T02:19:34.518Z,0
2018-06-18T02:20:44.582Z,0
2018-06-18T02:21:54.421Z,0
2018-06-18T02:23:04.501Z,0
2018-06-18T02:24:14.326Z,0
2018-06-18T02:25:24.387Z,0
2018-06-18T02:26:34.450Z,0
2018-06-18T02:27:44.513Z,0
2018-06-18T02:28:54.337Z,0
2018-06-18T02:30:04.147Z,0
2018-06-18T02:31:14.229Z,0
2018-06-18T02:32:24.376Z,0
2018-06-18T02:33:34.550Z,0
2018-06-18T02:34:44.412Z,0
2018-06-18T02:35:54.229Z,0
2018-06-18T02:37:04.315Z,0
2018-06-18T02:38:14.407Z,0
2018-06-18T02:39:24.502Z,0
2018-06-18T02:40:34.318Z,0
2018-06-18T02:41:44.406Z,0
2018-06-18T02:42:54.239Z,0
2018-06-18T02:44:04.316Z,0
2018-06-18T02:45:14.531Z,0
2018-06-18T02:46:24.610Z,0
2018-06-18T02:47:34.692Z,0
2018-06-18T02:48:44.520Z,0
2018-06-18T02:49:54.601Z,0
2018-06-18T02:51:04.676Z,0
2018-06-18T02:52:14.496Z,0
2018-06-18T02:53:24.584Z,5
2018-06-18T02:54:34.660Z,5
2018-06-18T02:55:44.742Z,5
2018-06-18T02:56:54.814Z,5
2018-06-18T02:58:04.882Z,5
2018-06-18T02:59:14.978Z,5
2018-06-18T03:00:25.517Z,5
2018-06-18T03:01:35.596Z,10
2018-06-18T03:02:45.445Z,10
2018-06-18T03:34:39.372Z,45
2018-06-18T03:35:49.180Z,45
2018-06-18T03:36:58.996Z,45
2018-06-18T03:38:08.570Z,45
2018-06-18T03:39:18.642Z,45
2018-06-18T03:40:28.703Z,50
2018-06-18T03:41:38.765Z,50
2018-06-18T03:42:48.818Z,50
2018-06-18T03:43:58.873Z,50
2018-06-18T03:45:08.682Z,50
2018-06-18T03:46:18.758Z,55
2018-06-18T03:47:28.835Z,55
2018-06-18T03:48:38.895Z,55
2018-06-18T03:49:48.969Z,65
2018-06-18T03:50:59.050Z,65
2018-06-18T03:52:09.197Z,70
2018-06-18T03:53:19.273Z,65
2018-06-18T03:54:29.363Z,65
2018-06-18T03:55:39.432Z,65
2018-06-18T03:56:49.534Z,70
2018-06-18T03:57:59.664Z,75
2018-06-18T03:59:09.758Z,80
2018-06-18T04:00:19.836Z,80
2018-06-18T04:01:29.389Z,85
2018-06-18T04:02:39.205Z,90
2018-06-18T04:03:49.062Z,90
2018-06-18T04:04:58.872Z,95
2018-06-18T04:06:08.949Z,95
2018-06-18T04:07:19.032Z,95
2018-06-18T04:08:29.121Z,95
2018-06-18T04:09:38.974Z,100
2018-06-18T04:10:48.793Z,100
2018-06-18T04:11:58.884Z,100
2018-06-18T04:13:08.980Z,105
2018-06-18T04:14:18.786Z,105
2018-06-18T04:15:28.600Z,110
2018-06-18T04:16:38.701Z,120
2018-06-18T04:17:48.507Z,135
2018-06-18T04:18:58.302Z,245
2018-06-18T04:20:08.389Z,325
2018-06-18T04:21:18.468Z,325
2018-06-18T04:22:28.288Z,315
2018-06-18T04:23:38.100Z,325
2018-06-18T04:24:48.391Z,340
2018-06-18T04:25:58.545Z,320
2018-06-18T04:27:08.127Z,345
2018-06-18T04:28:18.189Z,355
2018-06-18T04:29:28.253Z,350
2018-06-18T04:30:38.336Z,345
2018-06-18T04:31:48.154Z,340
2018-06-18T04:32:58.293Z,325
2018-06-18T04:34:08.383Z,310
2018-06-18T04:35:18.459Z,295
2018-06-18T04:36:28.529Z,250
2018-06-18T04:37:38.977Z,140
2018-06-18T04:38:49.134Z,140
2018-06-18T04:39:59.241Z,125
2018-06-18T04:41:08.812Z,105
2018-06-18T04:42:18.894Z,105
2018-06-18T04:43:28.984Z,105
2018-06-18T04:44:38.531Z,105
2018-06-18T04:45:48.663Z,105
2018-06-18T04:46:58.481Z,105
2018-06-18T04:48:08.324Z,105
2018-06-18T04:49:18.400Z,105
2018-06-18T04:50:28.270Z,100
2018-06-18T04:51:38.385Z,95
2018-06-18T04:52:48.472Z,95
2018-06-18T04:53:58.312Z,95
2018-06-18T04:55:08.121Z,95
2018-06-18T04:56:18.221Z,100
2018-06-18T04:57:28.357Z,110
2018-06-18T04:58:37.915Z,115
2018-06-18T04:59:47.737Z,125
2018-06-18T05:00:57.822Z,130
2018-06-18T05:02:07.828Z,140
2018-06-18T05:03:17.909Z,215
2018-06-18T05:04:28.007Z,210
2018-06-18T05:05:38.080Z,310
2018-06-18T05:06:48.164Z,185
2018-06-18T05:07:58.302Z,170
2018-06-18T05:09:08.388Z,200
2018-06-18T05:10:18.471Z,415
2018-06-18T05:11:28.538Z,425
2018-06-18T05:12:38.097Z,405
2018-06-18T05:13:48.186Z,390
2018-06-18T05:14:58.262Z,405
2018-06-18T05:16:08.071Z,405
2018-06-18T05:17:18.136Z,390
2018-06-18T05:18:28.208Z,375
2018-06-18T05:19:38.270Z,295
2018-06-18T05:20:48.736Z,350
2018-06-18T05:21:58.311Z,185
2018-06-18T05:23:08.403Z,180
2018-06-18T05:24:18.216Z,180
2018-06-18T05:25:28.280Z,185
2018-06-18T05:26:38.196Z,270
2018-06-18T05:27:48.017Z,290
2018-06-18T05:28:58.086Z,350
2018-06-18T05:30:07.916Z,320
2018-06-18T05:31:17.733Z,355
2018-06-18T05:32:27.817Z,360
2018-06-18T05:33:37.917Z,240
2018-06-18T05:34:48.000Z,335
2018-06-18T05:35:58.094Z,255
2018-06-18T05:37:08.158Z,370
2018-06-18T05:38:18.251Z,385
2018-06-18T05:39:28.317Z,395
2018-06-18T05:40:38.433Z,390
2018-06-18T05:41:48.518Z,395
2018-06-18T05:42:58.337Z,380
2018-06-18T05:44:08.412Z,390
2018-06-18T05:45:18.510Z,385
2018-06-18T05:46:28.311Z,390
2018-06-18T05:47:38.382Z,385
2018-06-18T05:48:48.452Z,380
2018-06-18T05:49:58.285Z,400
2018-06-18T05:51:08.137Z,395
2018-06-18T05:52:18.216Z,400
2018-06-18T05:53:28.337Z,405
2018-06-18T05:54:38.159Z,400
2018-06-18T05:55:47.955Z,410
2018-06-18T05:56:58.037Z,400
2018-06-18T05:58:08.122Z,395
2018-06-18T05:59:17.945Z,395
2018-06-18T06:00:28.035Z,400
2018-06-18T06:01:37.830Z,405
2018-06-18T06:02:47.914Z,410
2018-06-18T06:03:57.485Z,405
2018-06-18T06:05:07.578Z,410
2018-06-18T06:06:18.006Z,405
2018-06-18T06:07:28.092Z,415
2018-06-18T06:08:38.175Z,415
2018-06-18T06:09:48.265Z,420
2018-06-18T06:10:58.338Z,415
2018-06-18T06:12:08.421Z,420
2018-06-18T06:13:18.521Z,430
2018-06-18T06:14:28.354Z,425
2018-06-18T06:15:38.432Z,430
2018-06-18T06:16:48.323Z,425
2018-06-18T06:17:58.395Z,415
2018-06-18T06:19:08.478Z,415
2018-06-18T06:20:18.588Z,395
2018-06-18T06:21:28.712Z,420
2018-06-18T06:22:38.665Z,420
2018-06-18T06:23:48.472Z,415
2018-06-18T06:24:58.553Z,410
2018-06-18T06:26:08.638Z,405
2018-06-18T06:27:18.734Z,400
2018-06-18T06:28:28.809Z,400
2018-06-18T06:29:39.218Z,395
2018-06-18T06:30:49.373Z,405
2018-06-18T06:31:59.458Z,400
2018-06-18T06:33:09.265Z,395
2018-06-18T06:34:19.512Z,385
2018-06-18T06:35:29.592Z,375
2018-06-18T06:36:39.390Z,385
2018-06-18T06:37:49.547Z,380
2018-06-18T06:38:59.686Z,380
2018-06-18T06:40:09.514Z,370
2018-06-18T06:41:19.330Z,370
2018-06-18T06:42:29.667Z,370
2018-06-18T06:43:39.266Z,365
2018-06-18T06:44:49.078Z,360
2018-06-18T06:45:59.172Z,360
2018-06-18T06:47:09.268Z,355
2018-06-18T06:48:19.371Z,340
2018-06-18T06:49:29.440Z,335
2018-06-18T06:50:39.536Z,335
2018-06-18T06:51:49.648Z,335
2018-06-18T06:52:59.482Z,280
2018-06-18T06:54:09.576Z,280
2018-06-18T06:55:19.649Z,335
2018-06-18T06:56:29.471Z,335
2018-06-18T06:57:39.562Z,300
2018-06-18T06:58:49.402Z,300
2018-06-18T06:59:59.490Z,330
2018-06-18T07:01:09.581Z,290
2018-06-18T07:02:19.659Z,290
2018-06-18T07:03:29.304Z,305
2018-06-18T07:04:39.392Z,265
2018-06-18T07:05:49.464Z,265
2018-06-18T07:06:59.644Z,260
2018-06-18T07:08:09.957Z,260
2018-06-18T07:09:20.037Z,265
2018-06-18T07:10:30.149Z,280
2018-06-18T07:11:40.232Z,280
2018-06-18T07:12:50.104Z,265
2018-06-18T07:14:00.190Z,250
2018-06-18T07:15:10.272Z,245
2018-06-18T07:16:20.365Z,235
2018-06-18T07:17:30.454Z,235
2018-06-18T07:18:40.325Z,230
2018-06-18T07:19:50.411Z,235
2018-06-18T07:21:00.707Z,240
2018-06-18T07:22:10.268Z,235
2018-06-18T07:23:20.343Z,235
2018-06-18T07:24:30.420Z,230
2018-06-18T07:25:40.238Z,235
2018-06-18T07:26:50.069Z,225
2018-06-18T07:28:00.148Z,225
2018-06-18T07:29:10.239Z,225
2018-06-18T07:30:20.409Z,220
2018-06-18T07:31:30.537Z,230
2018-06-18T07:32:40.619Z,220
2018-06-18T07:33:50.454Z,230
2018-06-18T07:35:00.538Z,250
2018-06-18T07:36:10.601Z,245
2018-06-18T07:37:20.738Z,220
2018-06-18T07:38:30.959Z,230
2018-06-18T07:39:40.517Z,225
2018-06-18T07:40:50.596Z,240
2018-06-18T07:42:00.420Z,240
2018-06-18T07:43:10.514Z,245
2018-06-18T07:44:20.343Z,250
2018-06-18T07:45:30.535Z,240
2018-06-18T07:46:40.638Z,245
2018-06-18T07:47:50.451Z,240
2018-06-18T07:49:00.533Z,240
2018-06-18T07:50:10.637Z,240
2018-06-18T07:51:20.450Z,240
2018-06-18T07:52:30.267Z,240
2018-06-18T07:53:40.346Z,240
2018-06-18T07:54:50.491Z,240
2018-06-18T07:56:00.553Z,235
2018-06-18T07:57:10.642Z,235
2018-06-18T07:58:20.721Z,235
2018-06-18T07:59:30.525Z,235
2018-06-18T08:00:40.762Z,230
2018-06-18T08:01:50.582Z,230
2018-06-18T08:03:00.128Z,230
2018-06-18T08:04:09.414Z,230
2018-06-18T08:05:19.502Z,230
2018-06-18T08:06:29.602Z,230
2018-06-18T08:07:39.721Z,230
2018-06-18T08:08:49.884Z,230
2018-06-18T08:10:00.399Z,230
2018-06-18T08:11:10.595Z,230
2018-06-18T08:12:20.687Z,230
2018-06-18T08:13:30.850Z,230
2018-06-18T08:14:40.963Z,230
2018-06-18T08:15:51.083Z,230
2018-06-18T08:17:00.912Z,230
2018-06-18T08:18:10.801Z,230
2018-06-18T08:19:21.144Z,225
2018-06-18T08:20:31.243Z,225
2018-06-18T08:21:41.384Z,225
2018-06-18T08:22:51.477Z,225
2018-06-18T08:24:01.374Z,225
2018-06-18T08:25:11.736Z,225
2018-06-18T08:26:21.842Z,225
2018-06-18T08:27:32.423Z,225
2018-06-18T08:28:42.763Z,225
2018-06-18T08:29:52.861Z,225
2018-06-18T08:31:02.966Z,225
2018-06-18T08:32:13.104Z,225
2018-06-18T08:33:23.008Z,225
2018-06-18T08:34:33.187Z,220
2018-06-18T08:35:43.591Z,220
2018-06-18T08:36:53.708Z,220
2018-06-18T08:38:03.888Z,220
2018-06-18T08:39:14.102Z,220
2018-06-18T08:40:24.309Z,225
2018-06-18T08:41:34.412Z,220
2018-06-18T08:42:44.524Z,220
2018-06-18T08:43:54.661Z,220
2018-06-18T08:45:04.794Z,220
2018-06-18T08:46:15.016Z,220
2018-06-18T08:47:25.209Z,220
2018-06-18T08:48:36.059Z,220
2018-06-18T08:49:46.221Z,220
2018-06-18T08:50:56.096Z,220
2018-06-18T08:52:06.506Z,220
2018-06-18T08:53:16.678Z,215
2018-06-18T08:54:26.768Z,220
2018-06-18T08:55:36.861Z,220
2018-06-18T08:56:46.952Z,220
2018-06-18T08:57:57.442Z,220
2018-06-18T08:59:07.605Z,220
2018-06-18T09:00:17.449Z,220
2018-06-18T09:01:27.541Z,215
2018-06-18T09:02:37.377Z,220
2018-06-18T09:03:47.224Z,220
2018-06-18T09:04:57.106Z,220
2018-06-18T09:06:07.189Z,220
2018-06-18T09:07:17.294Z,220
2018-06-18T09:08:27.392Z,220
2018-06-18T09:09:37.469Z,225
2018-06-18T09:10:47.561Z,225
2018-06-18T09:11:57.670Z,225
2018-06-18T09:13:07.758Z,225
2018-06-18T09:14:17.854Z,225
2018-06-18T09:15:27.954Z,230
2018-06-18T09:16:38.099Z,230
2018-06-18T09:17:48.201Z,230
2018-06-18T09:18:58.339Z,225
2018-06-18T09:20:08.432Z,225
2018-06-18T09:21:18.528Z,225
2018-06-18T09:22:28.616Z,230
2018-06-18T09:23:38.814Z,225
2018-06-18T09:24:48.673Z,225
2018-06-18T09:25:58.507Z,230
2018-06-18T09:27:08.606Z,235
2018-06-18T09:28:18.690Z,235
2018-06-18T09:29:28.772Z,235
2018-06-18T09:30:38.867Z,240
2018-06-18T09:31:48.689Z,245
2018-06-18T09:32:58.793Z,245
2018-06-18T09:34:08.883Z,245
2018-06-18T09:35:18.967Z,245
2018-06-18T09:36:29.076Z,240
2018-06-18T09:37:39.190Z,230
2018-06-18T09:38:49.001Z,235
2018-06-18T09:39:58.844Z,235
2018-06-18T09:41:08.925Z,230
2018-06-18T09:42:18.772Z,230
2018-06-18T09:43:28.630Z,235
2018-06-18T09:44:38.715Z,240
2018-06-18T09:45:48.875Z,230
2018-06-18T09:46:58.700Z,240
2018-06-18T09:48:09.179Z,230
2018-06-18T09:49:19.299Z,230
2018-06-18T09:50:29.393Z,220
2018-06-18T09:51:39.480Z,220
2018-06-18T09:52:49.574Z,220
2018-06-18T09:53:59.404Z,225
2018-06-18T09:55:09.238Z,225
2018-06-18T09:56:19.313Z,225
2018-06-18T09:57:29.404Z,225
2018-06-18T09:58:39.491Z,225
2018-06-18T09:59:49.603Z,225
2018-06-18T10:00:59.714Z,225
2018-06-18T10:02:09.805Z,220
2018-06-18T10:03:19.639Z,220
2018-06-18T10:04:29.733Z,225
2018-06-18T10:05:39.819Z,230
2018-06-18T10:06:49.909Z,225
2018-06-18T10:08:00.033Z,230
2018-06-18T10:09:10.186Z,230
2018-06-18T10:10:20.339Z,230
2018-06-18T10:11:30.435Z,235
2018-06-18T10:12:40.241Z,180
2018-06-18T10:13:50.065Z,235
2018-06-18T10:15:00.199Z,240
2018-06-18T10:16:10.310Z,245
2018-06-18T10:17:20.410Z,240
2018-06-18T10:18:30.221Z,240
2018-06-18T10:19:40.313Z,230
2018-06-18T10:20:50.453Z,235
2018-06-18T10:22:00.536Z,230
2018-06-18T10:23:10.350Z,235
2018-06-18T10:24:20.780Z,235
2018-06-18T10:25:30.920Z,235
2018-06-18T10:26:41.025Z,240
2018-06-18T10:27:50.862Z,240
2018-06-18T10:29:00.944Z,245
2018-06-18T10:30:11.058Z,250
2018-06-18T10:31:21.151Z,255
2018-06-18T10:32:31.232Z,260
2018-06-18T10:33:41.325Z,260
2018-06-18T10:34:51.409Z,180
2018-06-18T10:36:01.501Z,255
2018-06-18T10:37:11.597Z,255
2018-06-18T10:38:21.420Z,260
2018-06-18T10:39:31.239Z,255
2018-06-18T10:40:41.333Z,250
2018-06-18T10:41:51.168Z,245
2018-06-18T10:43:01.271Z,245
2018-06-18T10:44:11.363Z,230
2018-06-18T10:45:21.193Z,245
2018-06-18T10:46:31.307Z,245
2018-06-18T10:47:41.409Z,245
2018-06-18T10:48:51.567Z,240
2018-06-18T10:50:01.682Z,240
2018-06-18T10:51:11.795Z,235
2018-06-18T10:52:21.893Z,235
2018-06-18T10:53:31.979Z,245
2018-06-18T10:54:42.054Z,250
2018-06-18T10:55:52.213Z,255
2018-06-18T10:57:02.137Z,260
2018-06-18T10:58:12.315Z,245
2018-06-18T10:59:22.391Z,240
2018-06-18T11:00:32.214Z,240
2018-06-18T11:01:42.297Z,230
2018-06-18T11:02:52.376Z,230
2018-06-18T11:04:02.600Z,230
2018-06-18T11:05:12.713Z,230
2018-06-18T11:06:22.792Z,230
2018-06-18T11:07:32.953Z,230
2018-06-18T11:08:43.042Z,230
2018-06-18T11:09:53.141Z,230
2018-06-18T11:11:03.274Z,230
2018-06-18T11:12:13.371Z,230
2018-06-18T11:13:23.457Z,230
2018-06-18T11:14:33.549Z,230
2018-06-18T11:15:43.694Z,230
2018-06-18T11:16:55.483Z,230
2018-06-18T11:18:05.700Z,140
2018-06-18T11:19:15.856Z,140
2018-06-18T11:20:25.947Z,235
2018-06-18T11:21:36.051Z,230
2018-06-18T11:22:46.157Z,230
2018-06-18T11:23:56.282Z,230
2018-06-18T11:25:06.429Z,230
2018-06-18T11:26:16.674Z,230
2018-06-18T11:27:27.196Z,230
2018-06-18T11:28:37.411Z,230
2018-06-18T11:29:47.544Z,230
2018-06-18T11:30:57.375Z,230
2018-06-18T11:32:07.470Z,230
2018-06-18T11:33:17.570Z,230
2018-06-18T11:34:27.700Z,230
2018-06-18T11:35:37.640Z,235
2018-06-18T11:36:47.935Z,230
2018-06-18T11:37:58.078Z,230
2018-06-18T11:39:08.197Z,230
2018-06-18T11:40:18.292Z,230
2018-06-18T11:41:28.127Z,230
2018-06-18T11:42:38.263Z,230
2018-06-18T11:43:48.834Z,235
2018-06-18T11:44:58.965Z,235
2018-06-18T11:46:09.060Z,235
2018-06-18T11:47:18.882Z,235
2018-06-18T11:48:29.232Z,235
2018-06-18T11:49:39.346Z,235
2018-06-18T11:50:49.450Z,235
2018-06-18T11:51:59.578Z,240
2018-06-18T11:53:09.426Z,245
2018-06-18T11:54:19.467Z,245
2018-06-18T11:55:29.224Z,245
2018-06-18T11:56:39.686Z,255
2018-06-18T11:57:49.813Z,250
2018-06-18T11:58:59.765Z,245
2018-06-18T12:00:09.932Z,240
2018-06-18T12:01:20.089Z,235
2018-06-18T12:02:29.670Z,230
2018-06-18T12:03:39.861Z,230
2018-06-18T12:04:49.947Z,230
2018-06-18T12:06:00.124Z,230
2018-06-18T12:07:10.479Z,235
2018-06-18T12:08:20.592Z,235
2018-06-18T12:09:30.971Z,240
2018-06-18T12:10:41.110Z,245
2018-06-18T12:11:50.930Z,250
2018-06-18T12:13:01.020Z,250
2018-06-18T12:14:10.618Z,245
2018-06-18T12:15:20.712Z,245
2018-06-18T12:16:30.822Z,240
2018-06-18T12:17:40.689Z,235
2018-06-18T12:18:50.800Z,235
2018-06-18T12:20:00.888Z,235
2018-06-18T12:21:10.981Z,240
2018-06-18T12:22:20.691Z,240
2018-06-18T12:23:30.826Z,245
2018-06-18T12:24:40.667Z,250
2018-06-18T12:25:50.774Z,250
2018-06-18T12:27:00.627Z,250
2018-06-18T12:28:10.931Z,245
2018-06-18T12:29:21.042Z,175
2018-06-18T12:30:31.171Z,255
2018-06-18T12:31:40.755Z,255
2018-06-18T12:32:50.578Z,255
2018-06-18T12:34:00.642Z,255
2018-06-18T12:35:10.786Z,270
2018-06-18T12:36:20.900Z,280
2018-06-18T12:37:30.999Z,290
2018-06-18T12:38:40.848Z,300
2018-06-18T12:39:50.985Z,305
2018-06-18T12:41:01.135Z,300
2018-06-18T12:42:11.239Z,295
2018-06-18T12:43:21.345Z,280
2018-06-18T12:44:31.438Z,270
2018-06-18T12:45:41.564Z,250
2018-06-18T12:46:52.467Z,245
2018-06-18T12:48:02.814Z,245
2018-06-18T12:49:12.981Z,245
2018-06-18T12:50:23.286Z,245
2018-06-18T12:51:33.145Z,250
2018-06-18T12:52:43.255Z,255
2018-06-18T12:53:53.372Z,255
2018-06-18T12:55:03.225Z,260
2018-06-18T12:56:13.382Z,260
2018-06-18T12:57:23.491Z,270
2018-06-18T12:58:33.340Z,285
2018-06-18T12:59:43.479Z,295
2018-06-18T13:00:53.630Z,295
2018-06-18T13:02:03.724Z,300
2018-06-18T13:03:13.543Z,300
2018-06-18T13:04:23.699Z,290
2018-06-18T13:05:33.880Z,290
2018-06-18T13:06:43.994Z,285
2018-06-18T13:07:54.176Z,295
2018-06-18T13:09:04.068Z,290
2018-06-18T13:10:14.526Z,290
2018-06-18T13:11:24.783Z,295
2018-06-18T13:12:34.608Z,295
2018-06-18T13:13:44.734Z,265
2018-06-18T13:14:54.831Z,285
2018-06-18T13:16:04.996Z,325
2018-06-18T13:17:15.096Z,290
2018-06-18T13:18:25.238Z,255
2018-06-18T13:19:35.060Z,260
2018-06-18T13:20:44.721Z,275
2018-06-18T13:21:54.840Z,280
2018-06-18T13:23:04.959Z,275
2018-06-18T13:24:15.066Z,270
2018-06-18T13:25:25.175Z,330
2018-06-18T13:26:35.285Z,295
2018-06-18T13:27:45.193Z,345
2018-06-18T13:28:55.474Z,325
2018-06-18T13:30:05.585Z,335
2018-06-18T13:31:15.791Z,340
2018-06-18T13:32:25.428Z,355
2018-06-18T13:33:35.567Z,345
2018-06-18T13:34:45.675Z,295
2018-06-18T13:35:55.780Z,275
2018-06-18T13:37:06.168Z,280
2018-06-18T13:38:16.334Z,315
2018-06-18T13:39:26.418Z,320
2018-06-18T13:40:36.837Z,305
2018-06-18T13:41:46.983Z,280
2018-06-18T13:42:57.101Z,285
2018-06-18T13:44:07.469Z,290
2018-06-18T13:45:17.678Z,310
2018-06-18T13:46:27.784Z,270
2018-06-18T13:47:37.877Z,240
2018-06-18T13:48:47.967Z,235
2018-06-18T13:56:05.394Z,270
2018-06-18T13:57:15.230Z,245
2018-06-18T13:58:25.389Z,250
2018-06-18T13:59:35.486Z,265
2018-06-18T14:00:45.571Z,285
2018-06-18T14:01:55.667Z,300
2018-06-18T14:03:06.004Z,305
2018-06-18T14:04:16.133Z,300
2018-06-18T14:05:26.250Z,300
2018-06-18T14:06:36.373Z,300
2018-06-18T14:07:46.591Z,300
2018-06-18T14:08:56.927Z,300
2018-06-18T14:10:07.054Z,305
2018-06-18T14:11:17.161Z,295
2018-06-18T14:12:27.255Z,290
2018-06-18T14:13:37.346Z,295
2018-06-18T14:14:47.513Z,285
2018-06-18T14:15:57.592Z,300
2018-06-18T14:17:07.705Z,310
2018-06-18T14:18:17.775Z,300
2018-06-18T14:19:27.575Z,315
2018-06-18T14:20:37.677Z,315
2018-06-18T14:21:47.767Z,315
2018-06-18T14:22:57.854Z,300
2018-06-18T14:24:07.670Z,285
2018-06-18T14:25:17.806Z,225
2018-06-18T14:26:27.677Z,210
2018-06-18T14:27:37.775Z,210
2018-06-18T14:28:47.601Z,210
2018-06-18T14:29:57.450Z,215
2018-06-18T14:31:07.534Z,225
2018-06-18T14:32:17.123Z,230
2018-06-18T14:33:27.238Z,265
2018-06-18T14:34:37.327Z,280
2018-06-18T14:35:47.438Z,220
2018-06-18T14:36:57.272Z,195
2018-06-18T14:38:07.384Z,175
2018-06-18T14:39:17.225Z,215
2018-06-18T14:40:27.542Z,235
2018-06-18T14:41:37.625Z,200
2018-06-18T14:42:48.035Z,175
2018-06-18T14:43:58.121Z,245
2018-06-18T14:45:08.470Z,245
2018-06-18T14:46:19.040Z,230
2018-06-18T14:47:28.854Z,230
2018-06-18T14:48:39.955Z,225
2018-06-18T14:49:50.327Z,220
2018-06-18T14:51:00.443Z,225
2018-06-18T14:52:10.540Z,220
2018-06-18T14:53:20.368Z,215
2018-06-18T14:54:30.739Z,215
2018-06-18T14:55:40.852Z,220
2018-06-18T14:56:51.218Z,220
2018-06-18T14:58:01.059Z,215
2018-06-18T14:59:11.401Z,165
2018-06-18T15:00:21.633Z,170
2018-06-18T15:01:31.749Z,205
2018-06-18T15:02:41.759Z,145
2018-06-18T15:03:52.360Z,210
2018-06-18T15:05:02.775Z,170
2018-06-18T15:06:12.673Z,210
2018-06-18T15:07:23.003Z,210
2018-06-18T15:08:33.391Z,205
2018-06-18T15:09:43.778Z,200
2018-06-18T15:10:53.887Z,205
2018-06-18T15:12:03.713Z,170
2018-06-18T15:13:13.812Z,165
2018-06-18T15:14:23.901Z,155
2018-06-18T15:15:34.100Z,150
2018-06-18T15:16:44.210Z,155
2018-06-18T15:17:54.341Z,150
2018-06-18T15:19:04.468Z,150
2018-06-18T15:20:14.587Z,155
2018-06-18T15:21:24.752Z,210
2018-06-18T15:22:34.851Z,170
2018-06-18T15:23:45.071Z,200
2018-06-18T15:24:55.207Z,215
2018-06-18T15:26:05.568Z,205
2018-06-18T15:27:16.130Z,205
2018-06-18T15:28:26.290Z,210
2018-06-18T15:29:36.390Z,220
2018-06-18T15:30:46.481Z,215
2018-06-18T15:31:56.574Z,205
2018-06-18T15:33:06.430Z,200
2018-06-18T15:34:16.283Z,200
2018-06-18T15:35:26.475Z,200
2018-06-18T15:36:36.308Z,195
2018-06-18T15:37:45.908Z,145
2018-06-18T15:38:56.005Z,140
2018-06-18T15:40:06.128Z,145
2018-06-18T15:41:17.282Z,150
2018-06-18T15:42:27.422Z,145
2018-06-18T15:43:37.564Z,140
2018-06-18T15:44:47.757Z,140
2018-06-18T15:45:57.925Z,145
2018-06-18T15:47:08.054Z,145
2018-06-18T15:48:17.907Z,145
2018-06-18T15:49:28.019Z,145
2018-06-18T15:50:38.412Z,145
2018-06-18T15:51:48.541Z,145
2018-06-18T15:52:58.673Z,140
2018-06-18T15:54:08.805Z,140
2018-06-18T15:55:18.625Z,180
2018-06-18T15:56:29.102Z,130
2018-06-18T15:57:38.317Z,125
2018-06-18T15:58:48.481Z,120
2018-06-18T15:59:58.330Z,115
2018-06-18T16:01:08.417Z,115
2018-06-18T16:02:18.604Z,115
2018-06-18T16:03:28.710Z,115
2018-06-18T16:04:38.323Z,110
2018-06-18T16:05:48.412Z,105
2018-06-18T16:06:58.228Z,105
2018-06-18T16:08:08.337Z,110
2018-06-18T16:09:18.383Z,130
2018-06-18T16:10:28.564Z,115
2018-06-18T16:11:38.701Z,145
2018-06-18T16:12:48.810Z,145
2018-06-18T16:13:58.961Z,135
2018-06-18T16:15:08.808Z,145
2018-06-18T16:16:18.899Z,145
2018-06-18T16:17:28.731Z,135
2018-06-18T16:18:38.842Z,150
2018-06-18T16:19:49.176Z,150
2018-06-18T16:20:59.348Z,145
2018-06-18T16:22:09.462Z,150
2018-06-18T16:23:20.361Z,150
2018-06-18T16:24:30.272Z,145
2018-06-18T16:25:39.872Z,145
2018-06-18T16:26:49.984Z,145
2018-06-18T16:28:00.086Z,140
2018-06-18T16:29:10.199Z,110
2018-06-18T16:30:20.309Z,110
2018-06-18T16:31:30.205Z,105
2018-06-18T16:32:40.314Z,135
2018-06-18T16:33:50.034Z,135
2018-06-18T16:35:00.199Z,130
2018-06-18T16:36:09.775Z,120
2018-06-18T16:37:19.854Z,135
2018-06-18T16:38:29.945Z,125
2018-06-18T16:39:39.609Z,125
2018-06-18T16:40:49.704Z,100
2018-06-18T16:41:59.568Z,115
2018-06-18T16:43:09.650Z,95
2018-06-18T16:44:19.737Z,105
2018-06-18T16:45:29.862Z,115
2018-06-18T16:46:39.970Z,110
2018-06-18T16:47:50.066Z,110
2018-06-18T16:49:00.170Z,110
2018-06-18T16:50:10.262Z,110
2018-06-18T16:51:20.407Z,105
2018-06-18T16:52:30.517Z,105
2018-06-18T16:53:40.599Z,105
2018-06-18T16:54:50.444Z,105
2018-06-18T16:56:00.543Z,110